Time;durP1;ratioP1;P1;durP2;ratioP2;P2;SDS_P1;SDS_P2;PMS_P1;PMS_P2;Temp;Humidity;BMP_temperature;BMP_pressure;BME280_temperature;BME280_humidity;BME280_pressure;Samples;Min_cycle;Max_cycle;Signal;HPM_P1;HPM_P2
2021/08/06 00:00:27;;;;;;;16.23;14.82;;;;;;;;;;4900058;29;20052;-64
2021/08/06 00:03:12;;;;;;;16.38;14.73;;;;;;;;;;4898472;29;20059;-64
2021/08/06 00:05:57;;;;;;;15.98;14.55;;;;;;;;;;4899404;29;20049;-64
2021/08/06 00:08:43;;;;;;;15.57;14.15;;;;;;;;;;4899777;29;20071;-64
2021/08/06 00:11:29;;;;;;;17.77;15.95;;;;;;;;;;4899643;29;20059;-64
2021/08/06 00:14:15;;;;;;;18.27;16.35;;;;;;;;;;4896723;29;20441;-64
2021/08/06 00:17:00;;;;;;;17.70;16.00;;;;;;;;;;4898060;29;20385;-64
2021/08/06 00:19:46;;;;;;;16.25;14.55;;;;;;;;;;4899154;29;20127;-64
2021/08/06 00:22:32;;;;;;;16.75;14.98;;;;;;;;;;4897208;29;20060;-64
2021/08/06 00:25:17;;;;;;;16.85;15.32;;;;;;;;;;4899236;29;20132;-64
2021/08/06 00:28:03;;;;;;;17.25;15.60;;;;;;;;;;4899533;29;20136;-64
2021/08/06 00:30:48;;;;;;;18.67;16.77;;;;;;;;;;4899701;29;20080;-64
2021/08/06 00:33:34;;;;;;;17.30;15.80;;;;;;;;;;4898068;29;20057;-64
2021/08/06 00:36:21;;;;;;;17.77;16.08;;;;;;;;;;4897179;29;20077;-64
2021/08/06 00:39:08;;;;;;;18.50;16.80;;;;;;;;;;4898170;29;20053;-64
2021/08/06 00:41:58;;;;;;;18.13;16.52;;;;;;;;;;4898397;29;20036;-64
2021/08/06 00:44:43;;;;;;;19.15;17.25;;;;;;;;;;4896720;29;20044;-64
2021/08/06 00:47:29;;;;;;;20.90;18.67;;;;;;;;;;4899325;29;20416;-64
2021/08/06 00:50:16;;;;;;;20.25;18.23;;;;;;;;;;4898125;29;20052;-64
2021/08/06 00:53:02;;;;;;;19.40;17.55;;;;;;;;;;4898013;29;20059;-64
2021/08/06 00:55:50;;;;;;;19.60;17.70;;;;;;;;;;4895457;29;20528;-65
2021/08/06 00:58:39;;;;;;;20.77;18.77;;;;;;;;;;4898076;29;20064;-64
2021/08/06 01:01:27;;;;;;;22.35;20.05;;;;;;;;;;4911084;29;20135;-64
2021/08/06 01:04:16;;;;;;;21.23;19.20;;;;;;;;;;4896988;29;20049;-65
2021/08/06 01:07:08;;;;;;;19.83;17.88;;;;;;;;;;4897822;29;20505;-65
2021/08/06 01:09:59;;;;;;;22.77;17.52;;;;;;;;;;4897883;29;20556;-65
2021/08/06 01:13:00;;;;;;;20.23;18.30;;;;;;;;;;4886569;29;20060;-65
2021/08/06 01:15:50;;;;;;;21.08;19.05;;;;;;;;;;4896389;29;20063;-65
2021/08/06 01:18:35;;;;;;;20.13;18.13;;;;;;;;;;4897945;29;20517;-65
2021/08/06 01:21:22;;;;;;;20.60;18.63;;;;;;;;;;4897867;29;20070;-65
2021/08/06 01:24:09;;;;;;;20.80;18.88;;;;;;;;;;4897498;29;20045;-65
2021/08/06 01:26:55;;;;;;;19.23;17.23;;;;;;;;;;4896410;29;20057;-65
2021/08/06 01:29:41;;;;;;;20.77;18.60;;;;;;;;;;4884607;29;20071;-65
2021/08/06 01:32:31;;;;;;;20.88;18.77;;;;;;;;;;4898150;29;20514;-65
2021/08/06 01:35:18;;;;;;;20.80;18.70;;;;;;;;;;4896064;29;20057;-65
2021/08/06 01:38:04;;;;;;;20.27;18.38;;;;;;;;;;4896044;29;20048;-65
2021/08/06 01:40:55;;;;;;;19.63;17.60;;;;;;;;;;4898120;29;20060;-65
2021/08/06 01:43:49;;;;;;;19.10;17.30;;;;;;;;;;4884077;29;20048;-65
2021/08/06 01:46:42;;;;;;;20.50;18.50;;;;;;;;;;4895808;29;20049;-65
2021/08/06 01:49:33;;;;;;;19.20;17.40;;;;;;;;;;4896118;29;20510;-65
2021/08/06 01:52:20;;;;;;;20.75;18.73;;;;;;;;;;4897283;29;20052;-65
2021/08/06 01:55:07;;;;;;;20.75;18.75;;;;;;;;;;4896860;29;20081;-65
2021/08/06 01:58:02;;;;;;;19.60;17.75;;;;;;;;;;4889802;29;20622;-65
2021/08/06 02:00:54;;;;;;;19.90;17.83;;;;;;;;;;4866185;29;20055;-65
2021/08/06 02:03:40;;;;;;;21.38;19.00;;;;;;;;;;4878383;29;20422;-65
2021/08/06 02:06:40;;;;;;;20.58;18.45;;;;;;;;;;4882536;29;20071;-65
2021/08/06 02:09:32;;;;;;;20.38;18.42;;;;;;;;;;4895403;29;20060;-65
2021/08/06 02:12:22;;;;;;;19.60;17.60;;;;;;;;;;4884277;29;20053;-65
2021/08/06 02:15:22;;;;;;;19.23;17.27;;;;;;;;;;4896446;29;20075;-65
2021/08/06 02:18:16;;;;;;;17.48;15.77;;;;;;;;;;4894747;29;20052;-65
2021/08/06 02:21:10;;;;;;;17.65;16.05;;;;;;;;;;4884601;29;20056;-65
2021/08/06 02:23:58;;;;;;;18.98;17.02;;;;;;;;;;4883463;29;20663;-65
2021/08/06 02:26:47;;;;;;;18.67;16.83;;;;;;;;;;4882681;29;20109;-65
2021/08/06 02:29:34;;;;;;;19.42;17.63;;;;;;;;;;4883754;29;20052;-65
2021/08/06 02:32:20;;;;;;;18.65;16.75;;;;;;;;;;4916472;23;20029;-64
2021/08/06 02:35:08;;;;;;;19.08;17.08;;;;;;;;;;4933798;29;20097;-64
2021/08/06 02:37:54;;;;;;;18.10;16.40;;;;;;;;;;4933443;29;20143;-64
2021/08/06 02:40:39;;;;;;;18.92;17.10;;;;;;;;;;4934353;29;20499;-64
2021/08/06 02:43:24;;;;;;;19.65;17.65;;;;;;;;;;4919345;29;20043;-64
2021/08/06 02:46:10;;;;;;;18.75;16.83;;;;;;;;;;4934121;29;20047;-64
2021/08/06 02:48:55;;;;;;;19.83;17.63;;;;;;;;;;4934939;29;20054;-65
2021/08/06 02:51:40;;;;;;;19.35;17.27;;;;;;;;;;4933939;29;20063;-63
2021/08/06 02:54:26;;;;;;;19.33;17.50;;;;;;;;;;4933768;29;20060;-64
2021/08/06 02:57:12;;;;;;;18.25;16.30;;;;;;;;;;4933050;29;20076;-64
2021/08/06 02:59:59;;;;;;;19.60;17.67;;;;;;;;;;4933265;29;20110;-64
2021/08/06 03:02:45;;;;;;;19.75;17.85;;;;;;;;;;4934910;29;20051;-64
2021/08/06 03:05:30;;;;;;;19.05;17.15;;;;;;;;;;4933625;29;20052;-64
2021/08/06 03:08:16;;;;;;;18.15;16.35;;;;;;;;;;4931840;29;20048;-64
2021/08/06 03:11:01;;;;;;;20.60;17.27;;;;;;;;;;4937596;29;20051;-64
2021/08/06 03:13:49;;;;;;;18.65;16.75;;;;;;;;;;4937435;29;20047;-64
2021/08/06 03:16:35;;;;;;;18.55;16.58;;;;;;;;;;4937739;29;20052;-65
2021/08/06 03:19:20;;;;;;;18.63;16.63;;;;;;;;;;4935245;29;20059;-64
2021/08/06 03:22:05;;;;;;;18.85;16.95;;;;;;;;;;4937326;29;20059;-63
2021/08/06 03:24:52;;;;;;;19.65;17.67;;;;;;;;;;4950994;29;20047;-63
2021/08/06 03:27:38;;;;;;;18.65;16.85;;;;;;;;;;4937605;29;20060;-64
2021/08/06 03:30:24;;;;;;;17.67;15.98;;;;;;;;;;4937130;29;20084;-64
2021/08/06 03:33:09;;;;;;;19.23;17.13;;;;;;;;;;4937219;29;20056;-64
2021/08/06 03:35:55;;;;;;;17.20;15.55;;;;;;;;;;4938444;29;20886;-64
2021/08/06 03:38:40;;;;;;;18.42;16.52;;;;;;;;;;4935377;29;20083;-64
2021/08/06 03:41:25;;;;;;;18.88;16.88;;;;;;;;;;4936556;29;20577;-64
2021/08/06 03:44:15;;;;;;;18.10;16.33;;;;;;;;;;4950577;28;20048;-64
2021/08/06 03:47:00;;;;;;;19.08;17.17;;;;;;;;;;4938172;29;20056;-64
2021/08/06 03:49:46;;;;;;;18.45;16.52;;;;;;;;;;4936283;29;20043;-64
2021/08/06 03:52:32;;;;;;;18.65;16.83;;;;;;;;;;4936891;29;20154;-64
2021/08/06 03:55:18;;;;;;;19.60;17.80;;;;;;;;;;4937028;29;20056;-64
2021/08/06 03:58:04;;;;;;;19.63;17.65;;;;;;;;;;4936881;29;20048;-64
2021/08/06 04:00:50;;;;;;;18.40;16.48;;;;;;;;;;4934636;29;20063;-63
2021/08/06 04:03:35;;;;;;;18.73;16.88;;;;;;;;;;4936251;29;20047;-64
2021/08/06 04:06:25;;;;;;;19.08;16.75;;;;;;;;;;4936864;29;20047;-64
2021/08/06 04:09:11;;;;;;;19.13;17.27;;;;;;;;;;4936629;29;20066;-64
2021/08/06 04:11:56;;;;;;;18.25;16.58;;;;;;;;;;4936281;29;20447;-63
2021/08/06 04:14:41;;;;;;;18.48;16.75;;;;;;;;;;4936432;29;20062;-63
2021/08/06 04:17:27;;;;;;;18.02;16.10;;;;;;;;;;4936445;29;20079;-64
2021/08/06 04:20:12;;;;;;;17.42;15.75;;;;;;;;;;4934243;29;20045;-64
2021/08/06 04:22:59;;;;;;;18.58;16.63;;;;;;;;;;4948598;28;20107;-64
2021/08/06 04:25:46;;;;;;;18.70;16.85;;;;;;;;;;4936136;29;20189;-63
2021/08/06 04:28:32;;;;;;;18.73;16.77;;;;;;;;;;4936334;29;20414;-63
2021/08/06 04:31:18;;;;;;;17.75;16.15;;;;;;;;;;4934439;29;20142;-64
2021/08/06 04:34:04;;;;;;;17.48;15.40;;;;;;;;;;4935607;29;20059;-64
2021/08/06 04:36:52;;;;;;;18.23;16.35;;;;;;;;;;4936312;29;20043;-63
2021/08/06 04:39:38;;;;;;;17.13;15.43;;;;;;;;;;4936229;29;20504;-64
2021/08/06 04:42:24;;;;;;;18.08;16.25;;;;;;;;;;4933864;29;20044;-65
2021/08/06 04:45:10;;;;;;;17.92;16.02;;;;;;;;;;4929974;29;20120;-63
2021/08/06 04:48:00;;;;;;;16.10;14.57;;;;;;;;;;4898235;29;20454;-64
2021/08/06 04:50:45;;;;;;;16.33;14.73;;;;;;;;;;4908302;29;20138;-64
2021/08/06 04:53:33;;;;;;;15.57;14.07;;;;;;;;;;4918097;29;20532;-63
2021/08/06 04:56:19;;;;;;;17.08;14.88;;;;;;;;;;4915534;29;20463;-63
2021/08/06 04:59:04;;;;;;;16.13;14.52;;;;;;;;;;4915854;29;20115;-64
2021/08/06 05:01:49;;;;;;;13.93;12.43;;;;;;;;;;4915486;29;20083;-64
2021/08/06 05:04:36;;;;;;;13.88;12.55;;;;;;;;;;4916810;29;20052;-64
2021/08/06 05:07:22;;;;;;;14.23;12.70;;;;;;;;;;4913767;29;20055;-64
2021/08/06 05:10:07;;;;;;;15.10;13.55;;;;;;;;;;4914792;29;20050;-64
2021/08/06 05:12:53;;;;;;;15.60;13.82;;;;;;;;;;4914640;29;20056;-64
2021/08/06 05:15:39;;;;;;;14.93;13.40;;;;;;;;;;4915303;29;20424;-64
2021/08/06 05:18:26;;;;;;;14.35;12.20;;;;;;;;;;4913523;29;20401;-64
2021/08/06 05:21:12;;;;;;;14.68;12.57;;;;;;;;;;4914081;29;21855;-64
2021/08/06 05:24:00;;;;;;;15.20;13.25;;;;;;;;;;4915397;29;20040;-64
2021/08/06 05:26:45;;;;;;;12.82;11.57;;;;;;;;;;4912100;29;20055;-64
2021/08/06 05:29:32;;;;;;;13.25;11.85;;;;;;;;;;4914613;29;20052;-65
2021/08/06 05:32:17;;;;;;;13.18;11.85;;;;;;;;;;4917107;29;20044;-64
2021/08/06 05:35:05;;;;;;;14.55;11.27;;;;;;;;;;4896227;29;20051;-64
2021/08/06 05:37:50;;;;;;;13.52;12.23;;;;;;;;;;4898275;29;20096;-64
2021/08/06 05:40:37;;;;;;;13.15;11.88;;;;;;;;;;4897131;29;20097;-64
2021/08/06 05:43:26;;;;;;;13.20;12.00;;;;;;;;;;4909739;29;20126;-64
2021/08/06 05:46:12;;;;;;;12.18;10.98;;;;;;;;;;4929544;29;20050;-64
2021/08/06 05:49:01;;;;;;;12.38;11.15;;;;;;;;;;4947851;29;20121;-64
2021/08/06 05:51:46;;;;;;;12.52;11.27;;;;;;;;;;4928136;29;20058;-64
2021/08/06 05:54:33;;;;;;;10.90;9.73;;;;;;;;;;4934554;29;20047;-64
2021/08/06 05:57:18;;;;;;;11.88;10.77;;;;;;;;;;4935758;29;20122;-64
2021/08/06 06:00:04;;;;;;;10.40;9.48;;;;;;;;;;4935506;29;20644;-64
2021/08/06 06:02:49;;;;;;;10.10;9.05;;;;;;;;;;4935007;29;20050;-65
2021/08/06 06:05:54;;;;;;;9.68;8.77;;;;;;;;;;4934396;29;20064;-65
2021/08/06 06:08:39;;;;;;;9.57;8.50;;;;;;;;;;4934677;29;20057;-64
2021/08/06 06:11:25;;;;;;;10.52;9.43;;;;;;;;;;4932079;29;20397;-64
2021/08/06 06:14:14;;;;;;;9.93;9.00;;;;;;;;;;4932732;29;20059;-64
2021/08/06 06:17:00;;;;;;;11.07;9.10;;;;;;;;;;4934531;29;20054;-64
2021/08/06 06:19:46;;;;;;;11.18;9.98;;;;;;;;;;4934413;29;20080;-64
2021/08/06 06:22:32;;;;;;;9.63;8.73;;;;;;;;;;4945738;29;20047;-64
2021/08/06 06:25:18;;;;;;;8.75;7.47;;;;;;;;;;4930022;29;20481;-64
2021/08/06 06:28:04;;;;;;;11.32;9.57;;;;;;;;;;4927437;29;20408;-64
2021/08/06 06:31:05;;;;;;;9.85;8.77;;;;;;;;;;4901824;29;20048;-64
2021/08/06 06:33:50;;;;;;;8.68;7.72;;;;;;;;;;4904593;29;20135;-64
2021/08/06 06:36:36;;;;;;;9.13;8.23;;;;;;;;;;4913619;29;20505;-64
2021/08/06 06:39:21;;;;;;;11.57;8.25;;;;;;;;;;4914341;29;20515;-65
2021/08/06 06:42:07;;;;;;;9.73;8.57;;;;;;;;;;4928838;29;20052;-65
2021/08/06 06:44:56;;;;;;;8.55;7.75;;;;;;;;;;4911820;29;20036;-64
2021/08/06 06:47:42;;;;;;;8.73;7.75;;;;;;;;;;4913191;29;20044;-64
2021/08/06 06:50:28;;;;;;;9.20;8.15;;;;;;;;;;4913992;29;20052;-65
2021/08/06 06:53:15;;;;;;;9.65;8.65;;;;;;;;;;4912020;29;20036;-64
2021/08/06 06:56:01;;;;;;;9.43;8.40;;;;;;;;;;4913231;29;20047;-65
2021/08/06 06:58:48;;;;;;;9.93;9.00;;;;;;;;;;4913979;29;20437;-65
2021/08/06 07:01:36;;;;;;;9.60;8.70;;;;;;;;;;4911501;29;20044;-65
2021/08/06 07:04:21;;;;;;;9.65;8.63;;;;;;;;;;4912588;29;20046;-65
2021/08/06 07:07:08;;;;;;;9.30;8.38;;;;;;;;;;4913858;29;20358;-66
2021/08/06 07:09:54;;;;;;;9.02;8.13;;;;;;;;;;4904126;29;20221;-65
2021/08/06 07:12:40;;;;;;;9.88;8.77;;;;;;;;;;4895685;29;20710;-65
2021/08/06 07:15:26;;;;;;;10.07;9.07;;;;;;;;;;4910239;29;20068;-65
2021/08/06 07:18:12;;;;;;;10.13;8.18;;;;;;;;;;4911141;29;20074;-65
2021/08/06 07:21:00;;;;;;;9.93;8.05;;;;;;;;;;4913577;29;20481;-65
2021/08/06 07:23:46;;;;;;;10.15;9.07;;;;;;;;;;4915046;29;20044;-65
2021/08/06 07:26:31;;;;;;;9.40;8.48;;;;;;;;;;4906584;29;20139;-64
2021/08/06 07:29:17;;;;;;;7.22;6.68;;;;;;;;;;4909698;29;20047;-64
2021/08/06 07:32:02;;;;;;;8.07;7.25;;;;;;;;;;4910203;29;20144;-64
2021/08/06 07:34:47;;;;;;;8.70;7.82;;;;;;;;;;4910038;29;20552;-65
2021/08/06 07:37:33;;;;;;;10.32;6.85;;;;;;;;;;4909807;29;20048;-65
2021/08/06 07:40:20;;;;;;;7.40;6.63;;;;;;;;;;4911828;29;20051;-65
2021/08/06 07:43:08;;;;;;;9.25;7.20;;;;;;;;;;4924221;29;20540;-65
2021/08/06 07:45:54;;;;;;;8.90;8.00;;;;;;;;;;4911261;29;20075;-65
2021/08/06 07:48:40;;;;;;;8.82;7.32;;;;;;;;;;4925016;29;20055;-65
2021/08/06 07:51:25;;;;;;;7.97;7.28;;;;;;;;;;4913497;29;20458;-65
2021/08/06 07:54:11;;;;;;;9.35;8.45;;;;;;;;;;4891791;29;20533;-65
2021/08/06 07:56:56;;;;;;;10.30;8.70;;;;;;;;;;4896419;29;20058;-65
2021/08/06 07:59:41;;;;;;;8.73;7.88;;;;;;;;;;4895914;29;20425;-65
2021/08/06 08:02:27;;;;;;;11.77;10.00;;;;;;;;;;4902529;29;20044;-65
2021/08/06 08:05:13;;;;;;;9.77;8.63;;;;;;;;;;4934864;28;20051;-64
2021/08/06 08:07:58;;;;;;;11.40;9.80;;;;;;;;;;4947273;29;20134;-65
2021/08/06 08:10:44;;;;;;;12.07;10.88;;;;;;;;;;4917460;29;20189;-65
2021/08/06 08:13:33;;;;;;;11.80;10.43;;;;;;;;;;4913053;29;20059;-66
2021/08/06 08:16:19;;;;;;;11.23;9.77;;;;;;;;;;4933705;29;20046;-64
2021/08/06 08:19:05;;;;;;;12.48;11.27;;;;;;;;;;4934455;28;20415;-64
2021/08/06 08:21:51;;;;;;;12.65;10.88;;;;;;;;;;4933374;29;20122;-64
2021/08/06 08:24:37;;;;;;;10.75;9.65;;;;;;;;;;4927573;29;20048;-65
2021/08/06 08:27:22;;;;;;;11.52;10.45;;;;;;;;;;4934324;29;20050;-65
2021/08/06 08:30:07;;;;;;;11.07;9.98;;;;;;;;;;4935210;28;20427;-64
2021/08/06 08:32:53;;;;;;;11.65;10.45;;;;;;;;;;4946457;23;20100;-63
2021/08/06 08:35:38;;;;;;;10.60;9.57;;;;;;;;;;4928518;29;20055;-63
2021/08/06 08:38:24;;;;;;;11.13;10.13;;;;;;;;;;4900637;29;20356;-63
2021/08/06 08:41:09;;;;;;;9.43;8.50;;;;;;;;;;4903440;29;20135;-63
2021/08/06 08:43:56;;;;;;;10.18;9.27;;;;;;;;;;4907339;29;20045;-63
2021/08/06 08:46:42;;;;;;;10.05;9.00;;;;;;;;;;4907780;29;20043;-63
2021/08/06 08:49:29;;;;;;;10.10;9.15;;;;;;;;;;4894730;29;20496;-63
2021/08/06 08:52:15;;;;;;;10.27;9.13;;;;;;;;;;4901840;29;20148;-63
2021/08/06 08:55:00;;;;;;;8.60;7.88;;;;;;;;;;4902219;29;20125;-63
2021/08/06 08:57:45;;;;;;;8.60;7.82;;;;;;;;;;4903097;29;20076;-63
2021/08/06 09:00:31;;;;;;;8.90;8.05;;;;;;;;;;4899530;29;20571;-63
2021/08/06 09:03:36;;;;;;;7.10;6.50;;;;;;;;;;4895822;29;20036;-63
2021/08/06 09:06:38;;;;;;;8.65;7.13;;;;;;;;;;4903692;29;20678;-63
2021/08/06 09:09:24;;;;;;;8.20;7.40;;;;;;;;;;4894733;29;20080;-63
2021/08/06 09:12:28;;;;;;;8.57;7.70;;;;;;;;;;4908874;29;20052;-63
2021/08/06 09:15:13;;;;;;;6.60;6.10;;;;;;;;;;4894322;29;20729;-64
2021/08/06 09:17:58;;;;;;;6.82;6.15;;;;;;;;;;4899133;29;20041;-63
2021/08/06 09:20:43;;;;;;;6.95;6.35;;;;;;;;;;4888958;29;20131;-63
2021/08/06 09:23:43;;;;;;;8.40;7.70;;;;;;;;;;4896266;29;20057;-63
2021/08/06 09:26:29;;;;;;;7.55;6.75;;;;;;;;;;4895405;29;20084;-63
2021/08/06 09:29:14;;;;;;;7.20;6.60;;;;;;;;;;4903664;29;20047;-63
2021/08/06 09:32:01;;;;;;;5.13;4.53;;;;;;;;;;4900759;29;20048;-63
2021/08/06 09:34:46;;;;;;;4.30;4.00;;;;;;;;;;4905216;29;20052;-63
2021/08/06 09:37:36;;;;;;;4.55;4.20;;;;;;;;;;4898586;29;20048;-63
2021/08/06 09:40:23;;;;;;;3.47;3.03;;;;;;;;;;4901954;29;20041;-63
2021/08/06 09:43:15;;;;;;;4.03;2.72;;;;;;;;;;4899644;29;20045;-63
2021/08/06 09:46:01;;;;;;;2.58;2.38;;;;;;;;;;4893916;29;20429;-63
2021/08/06 09:48:46;;;;;;;2.80;2.60;;;;;;;;;;4890353;29;20060;-63
2021/08/06 09:51:31;;;;;;;3.10;2.72;;;;;;;;;;4895021;29;20509;-63
2021/08/06 09:54:18;;;;;;;6.05;3.00;;;;;;;;;;4895020;29;20053;-63
2021/08/06 09:57:08;;;;;;;2.83;2.63;;;;;;;;;;4893817;29;20081;-63
2021/08/06 09:59:54;;;;;;;6.15;3.28;;;;;;;;;;4895591;29;20131;-63
2021/08/06 10:02:39;;;;;;;4.50;2.55;;;;;;;;;;4902762;29;20421;-63
2021/08/06 10:05:28;;;;;;;4.70;2.97;;;;;;;;;;4912387;29;20792;-64
2021/08/06 10:08:13;;;;;;;2.78;2.58;;;;;;;;;;4899831;29;20045;-64
2021/08/06 10:10:59;;;;;;;3.92;2.67;;;;;;;;;;4894448;29;20537;-64
2021/08/06 10:13:44;;;;;;;4.18;3.28;;;;;;;;;;4894320;29;20173;-64
2021/08/06 10:16:29;;;;;;;3.22;2.92;;;;;;;;;;4894388;29;20064;-64
2021/08/06 10:19:15;;;;;;;4.28;2.53;;;;;;;;;;4893373;29;20075;-64
2021/08/06 10:22:00;;;;;;;2.63;2.20;;;;;;;;;;4893900;29;20054;-63
2021/08/06 10:24:46;;;;;;;2.50;2.30;;;;;;;;;;4895274;29;20155;-64
2021/08/06 10:27:31;;;;;;;2.22;2.10;;;;;;;;;;4894273;29;20056;-64
2021/08/06 10:30:32;;;;;;;2.80;2.50;;;;;;;;;;4893253;29;20056;-63
2021/08/06 10:33:27;;;;;;;3.03;2.60;;;;;;;;;;4897709;29;20058;-66
2021/08/06 10:36:12;;;;;;;3.55;2.97;;;;;;;;;;4913014;29;20123;-66
2021/08/06 10:38:58;;;;;;;2.85;2.63;;;;;;;;;;4913912;29;20527;-66
2021/08/06 10:41:50;;;;;;;3.28;2.97;;;;;;;;;;4914030;29;20063;-66
2021/08/06 10:44:53;;;;;;;3.67;2.70;;;;;;;;;;4913922;29;20051;-66
2021/08/06 10:47:54;;;;;;;3.17;2.20;;;;;;;;;;4888419;29;20104;-66
2021/08/06 10:50:40;;;;;;;3.72;2.88;;;;;;;;;;4894785;29;20588;-66
2021/08/06 10:53:25;;;;;;;3.55;3.25;;;;;;;;;;4891399;29;20674;-66
2021/08/06 10:56:29;;;;;;;4.05;3.55;;;;;;;;;;4894355;29;20080;-66
2021/08/06 10:59:15;;;;;;;4.00;3.70;;;;;;;;;;4894475;29;20116;-66
2021/08/06 11:02:00;;;;;;;4.90;4.43;;;;;;;;;;4893540;29;20119;-66
2021/08/06 11:04:46;;;;;;;5.30;4.32;;;;;;;;;;4913308;29;20060;-66
2021/08/06 11:07:32;;;;;;;5.05;4.40;;;;;;;;;;4913611;29;20055;-64
2021/08/06 11:10:36;;;;;;;4.78;4.38;;;;;;;;;;4899675;29;20513;-64
2021/08/06 11:13:33;;;;;;;4.20;3.80;;;;;;;;;;4875142;29;20056;-64
2021/08/06 11:16:19;;;;;;;6.32;3.90;;;;;;;;;;4875174;29;20060;-65
2021/08/06 11:19:05;;;;;;;6.40;3.97;;;;;;;;;;4874997;29;20064;-64
2021/08/06 11:21:50;;;;;;;3.65;2.67;;;;;;;;;;4880937;29;20055;-64
2021/08/06 11:24:38;;;;;;;3.40;3.10;;;;;;;;;;4894074;29;20181;-64
2021/08/06 11:27:32;;;;;;;6.82;3.67;;;;;;;;;;4893899;29;20521;-64
2021/08/06 11:30:19;;;;;;;4.82;3.17;;;;;;;;;;4895727;29;20045;-64
2021/08/06 11:33:05;;;;;;;5.28;3.15;;;;;;;;;;4905722;29;20056;-64
2021/08/06 11:35:54;;;;;;;4.50;3.42;;;;;;;;;;4915741;29;20071;-64
2021/08/06 11:38:39;;;;;;;4.10;3.08;;;;;;;;;;4917366;29;20055;-64
2021/08/06 11:41:25;;;;;;;5.47;3.40;;;;;;;;;;4916775;29;20172;-66
2021/08/06 11:44:11;;;;;;;7.80;4.55;;;;;;;;;;4896591;29;20048;-72
2021/08/06 11:46:56;;;;;;;4.50;3.90;;;;;;;;;;4898622;29;20049;-65
2021/08/06 11:49:51;;;;;;;5.82;4.53;;;;;;;;;;4897081;29;20646;-65
2021/08/06 11:52:38;;;;;;;4.82;4.38;;;;;;;;;;4897048;29;20413;-65
2021/08/06 11:55:28;;;;;;;4.63;4.22;;;;;;;;;;4896971;29;20040;-64
2021/08/06 11:58:13;;;;;;;4.43;3.72;;;;;;;;;;4897306;29;20067;-65
2021/08/06 12:00:58;;;;;;;4.72;3.90;;;;;;;;;;4898245;29;20051;-64
2021/08/06 12:03:48;;;;;;;4.40;3.50;;;;;;;;;;4902801;29;20072;-64
2021/08/06 12:06:33;;;;;;;5.10;4.15;;;;;;;;;;4898506;29;20060;-65
2021/08/06 12:09:18;;;;;;;4.95;3.38;;;;;;;;;;4897095;29;20067;-64
2021/08/06 12:12:03;;;;;;;5.82;3.40;;;;;;;;;;4897509;29;20055;-64
2021/08/06 12:14:49;;;;;;;4.30;3.15;;;;;;;;;;4896021;29;20417;-64
2021/08/06 12:17:34;;;;;;;3.97;2.28;;;;;;;;;;4896581;29;20048;-64
2021/08/06 12:20:40;;;;;;;3.80;2.67;;;;;;;;;;4896116;29;20428;-64
2021/08/06 12:23:25;;;;;;;3.58;2.80;;;;;;;;;;4896872;29;20532;-64
2021/08/06 12:26:14;;;;;;;3.83;2.65;;;;;;;;;;4877339;29;20522;-64
2021/08/06 12:29:19;;;;;;;3.78;3.35;;;;;;;;;;4878487;29;20135;-64
2021/08/06 12:32:12;;;;;;;7.13;5.00;;;;;;;;;;4881730;29;20524;-64
2021/08/06 12:34:58;;;;;;;6.20;5.38;;;;;;;;;;4894841;29;20108;-64
2021/08/06 12:37:44;;;;;;;5.60;5.10;;;;;;;;;;4911658;29;20055;-64
2021/08/06 12:40:49;;;;;;;5.75;5.18;;;;;;;;;;4915555;29;20153;-64
2021/08/06 12:43:34;;;;;;;5.63;4.88;;;;;;;;;;4915696;29;20048;-64
2021/08/06 12:46:21;;;;;;;6.90;5.47;;;;;;;;;;4889434;29;20124;-64
2021/08/06 12:49:10;;;;;;;5.80;4.60;;;;;;;;;;4871976;29;20052;-64
2021/08/06 12:51:59;;;;;;;5.10;4.70;;;;;;;;;;4878468;29;20092;-64
2021/08/06 12:54:46;;;;;;;5.28;4.60;;;;;;;;;;4890627;29;20494;-64
2021/08/06 12:57:38;;;;;;;4.72;4.30;;;;;;;;;;4878304;29;20049;-64
2021/08/06 13:00:32;;;;;;;5.78;4.75;;;;;;;;;;4886721;29;20056;-64
2021/08/06 13:03:18;;;;;;;5.57;3.97;;;;;;;;;;4906414;29;20067;-64
2021/08/06 13:06:03;;;;;;;5.22;4.47;;;;;;;;;;4899579;29;20064;-64
2021/08/06 13:08:48;;;;;;;6.43;4.43;;;;;;;;;;4908532;29;20454;-64
2021/08/06 13:11:34;;;;;;;5.38;3.30;;;;;;;;;;4904916;29;20048;-64
2021/08/06 13:14:19;;;;;;;3.97;3.15;;;;;;;;;;4901016;29;20045;-64
2021/08/06 13:17:04;;;;;;;4.20;2.72;;;;;;;;;;4903935;29;20609;-64
2021/08/06 13:19:50;;;;;;;6.35;2.28;;;;;;;;;;4905785;29;20132;-63
2021/08/06 13:22:35;;;;;;;3.00;2.15;;;;;;;;;;4901871;29;20055;-63
2021/08/06 13:25:20;;;;;;;4.43;2.63;;;;;;;;;;4904064;29;20413;-63
2021/08/06 13:28:06;;;;;;;6.15;2.90;;;;;;;;;;4905129;29;20036;-63
2021/08/06 13:30:51;;;;;;;4.43;3.13;;;;;;;;;;4906155;29;20119;-63
2021/08/06 13:33:36;;;;;;;4.35;2.88;;;;;;;;;;4903635;29;20138;-63
2021/08/06 13:36:22;;;;;;;3.53;3.22;;;;;;;;;;4907551;29;20775;-63
2021/08/06 13:39:07;;;;;;;4.18;2.63;;;;;;;;;;4895926;29;20095;-63
2021/08/06 13:41:52;;;;;;;4.05;2.42;;;;;;;;;;4895954;29;20068;-63
2021/08/06 13:44:37;;;;;;;3.13;2.75;;;;;;;;;;4896192;29;20120;-63
2021/08/06 13:47:23;;;;;;;2.78;2.40;;;;;;;;;;4892936;29;20833;-63
2021/08/06 13:50:09;;;;;;;4.22;2.78;;;;;;;;;;4892815;29;20104;-63
2021/08/06 13:52:54;;;;;;;2.17;0.60;;;;;;;;;;4895290;29;20580;-63
2021/08/06 13:55:39;;;;;;;0.93;0.60;;;;;;;;;;4895661;29;20055;-63
2021/08/06 13:58:25;;;;;;;2.25;0.70;;;;;;;;;;4894602;29;20056;-63
2021/08/06 14:01:10;;;;;;;4.03;1.45;;;;;;;;;;4899072;29;20052;-64
2021/08/06 14:03:55;;;;;;;2.58;1.17;;;;;;;;;;4900657;29;20044;-64
2021/08/06 14:06:41;;;;;;;2.45;1.20;;;;;;;;;;4902113;29;20466;-64
2021/08/06 14:09:26;;;;;;;3.35;1.85;;;;;;;;;;4897322;29;20167;-64
2021/08/06 14:12:12;;;;;;;2.08;1.33;;;;;;;;;;4899019;29;20484;-64
2021/08/06 14:14:58;;;;;;;3.47;1.58;;;;;;;;;;4897973;29;20036;-64
2021/08/06 14:17:43;;;;;;;1.85;1.65;;;;;;;;;;4904558;29;20686;-65
2021/08/06 14:20:29;;;;;;;4.10;2.42;;;;;;;;;;4901053;29;20059;-65
2021/08/06 14:23:14;;;;;;;2.35;2.15;;;;;;;;;;4900678;29;20067;-65
2021/08/06 14:25:59;;;;;;;2.40;1.92;;;;;;;;;;4900450;29;20064;-65
2021/08/06 14:28:45;;;;;;;2.08;1.92;;;;;;;;;;4897689;29;20051;-65
2021/08/06 14:31:30;;;;;;;4.00;2.15;;;;;;;;;;4904848;29;20155;-64
2021/08/06 14:34:16;;;;;;;2.85;2.35;;;;;;;;;;4906260;29;20184;-65
2021/08/06 14:37:01;;;;;;;3.90;2.42;;;;;;;;;;4941711;23;20058;-67
2021/08/06 14:39:46;;;;;;;4.03;2.83;;;;;;;;;;4937383;29;20052;-64
2021/08/06 14:42:32;;;;;;;4.00;2.97;;;;;;;;;;4939417;29;20433;-65
2021/08/06 14:45:18;;;;;;;3.75;2.58;;;;;;;;;;4938785;29;20043;-66
2021/08/06 14:48:03;;;;;;;2.58;2.38;;;;;;;;;;4936460;28;20063;-65
2021/08/06 14:50:48;;;;;;;2.00;1.90;;;;;;;;;;4932528;29;20047;-65
2021/08/06 14:53:34;;;;;;;2.65;2.40;;;;;;;;;;4925537;29;20051;-64
2021/08/06 14:56:19;;;;;;;3.47;2.80;;;;;;;;;;4937611;28;20139;-65
2021/08/06 14:59:04;;;;;;;4.50;3.05;;;;;;;;;;4936869;29;20043;-65
2021/08/06 15:01:50;;;;;;;2.58;2.20;;;;;;;;;;4939506;29;20057;-65
2021/08/06 15:04:36;;;;;;;3.63;3.33;;;;;;;;;;4943952;29;20040;-65
2021/08/06 15:07:21;;;;;;;3.90;3.00;;;;;;;;;;4939574;28;20046;-65
2021/08/06 15:10:07;;;;;;;3.25;2.95;;;;;;;;;;4942064;29;20187;-65
2021/08/06 15:12:52;;;;;;;5.70;3.33;;;;;;;;;;4946027;28;20171;-64
2021/08/06 15:15:38;;;;;;;3.15;2.22;;;;;;;;;;4931563;29;20066;-65
2021/08/06 15:18:23;;;;;;;4.60;2.45;;;;;;;;;;4933437;29;20054;-65
2021/08/06 15:21:08;;;;;;;3.00;2.53;;;;;;;;;;4934379;29;20127;-64
2021/08/06 15:23:54;;;;;;;2.40;2.20;;;;;;;;;;4934371;29;20175;-64
2021/08/06 15:26:39;;;;;;;2.92;2.58;;;;;;;;;;4932552;29;20047;-65
2021/08/06 15:29:25;;;;;;;5.03;2.63;;;;;;;;;;4934498;29;20071;-64
2021/08/06 15:32:10;;;;;;;5.30;2.50;;;;;;;;;;4933335;29;20052;-65
2021/08/06 15:34:55;;;;;;;3.38;2.50;;;;;;;;;;4933101;29;20130;-64
2021/08/06 15:37:40;;;;;;;5.75;3.22;;;;;;;;;;4930743;29;20052;-64
2021/08/06 15:40:25;;;;;;;4.50;2.13;;;;;;;;;;4915133;29;20075;-65
2021/08/06 15:43:11;;;;;;;4.20;2.63;;;;;;;;;;4914810;29;20040;-65
2021/08/06 15:45:56;;;;;;;4.28;2.17;;;;;;;;;;4915064;29;20054;-64
2021/08/06 15:48:43;;;;;;;5.10;2.50;;;;;;;;;;4933421;29;20107;-65
2021/08/06 15:51:28;;;;;;;5.00;2.00;;;;;;;;;;4933035;29;20055;-66
2021/08/06 15:54:14;;;;;;;4.13;2.13;;;;;;;;;;4933132;29;20047;-65
2021/08/06 15:56:59;;;;;;;4.45;1.98;;;;;;;;;;4932912;29;20511;-65
2021/08/06 15:59:44;;;;;;;4.25;1.63;;;;;;;;;;4931951;29;20047;-65
2021/08/06 16:02:29;;;;;;;3.55;1.42;;;;;;;;;;4934138;29;20047;-65
2021/08/06 16:05:16;;;;;;;2.78;1.30;;;;;;;;;;4933851;29;20054;-65
2021/08/06 16:08:01;;;;;;;3.50;2.20;;;;;;;;;;4932887;29;20416;-65
2021/08/06 16:10:46;;;;;;;4.75;1.85;;;;;;;;;;4933020;29;20118;-66
2021/08/06 16:13:31;;;;;;;5.35;1.80;;;;;;;;;;4933793;29;20420;-65
2021/08/06 16:16:16;;;;;;;3.63;1.77;;;;;;;;;;4934699;29;20040;-65
2021/08/06 16:19:02;;;;;;;3.90;1.80;;;;;;;;;;4936009;29;20058;-65
2021/08/06 16:21:47;;;;;;;2.88;1.70;;;;;;;;;;4937024;29;20051;-65
2021/08/06 16:24:32;;;;;;;2.92;1.48;;;;;;;;;;4936720;29;20058;-66
2021/08/06 16:27:18;;;;;;;2.05;1.00;;;;;;;;;;4937314;29;20499;-65
2021/08/06 16:30:03;;;;;;;3.38;1.20;;;;;;;;;;4932633;29;20163;-65